Time;durP1;ratioP1;P1;durP2;ratioP2;P2;SDS_P1;SDS_P2;PMS_P1;PMS_P2;Temp;Humidity;BMP_temperature;BMP_pressure;BME280_temperature;BME280_humidity;BME280_pressure;Samples;Min_cycle;Max_cycle;Signal;HPM_P1;HPM_P2
2023/01/06 00:00:34;;;;;;;7.63;4.93;;;;;;;12.57;62.55;94991.81;5130271;27;20196;-44
2023/01/06 00:03:01;;;;;;;5.10;4.53;;;;;;;12.57;61.94;94996.94;5130229;28;20193;-46
2023/01/06 00:05:28;;;;;;;5.37;4.43;;;;;;;12.58;62.09;95008.81;5129881;28;20177;-48
2023/01/06 00:07:55;;;;;;;6.43;5.33;;;;;;;12.60;62.05;95006.91;5129720;28;20188;-44
2023/01/06 00:10:22;;;;;;;6.23;5.33;;;;;;;12.61;61.91;95018.78;5129590;28;20297;-45
2023/01/06 00:12:50;;;;;;;7.90;5.50;;;;;;;12.61;62.06;95018.78;5130217;28;20192;-45
2023/01/06 00:15:18;;;;;;;6.73;5.33;;;;;;;12.62;62.15;95029.88;5129771;28;20189;-45
2023/01/06 00:17:46;;;;;;;6.80;5.67;;;;;;;12.61;61.99;95026.50;5129130;28;20212;-45
2023/01/06 00:20:14;;;;;;;7.17;5.17;;;;;;;12.49;62.04;95009.66;5129687;28;20529;-45
2023/01/06 00:22:41;;;;;;;7.57;6.53;;;;;;;12.61;61.98;95038.50;5130148;28;20189;-45
2023/01/06 00:25:10;;;;;;;6.73;5.23;;;;;;;12.60;61.98;95039.44;5129620;28;20629;-44
2023/01/06 00:27:37;;;;;;;8.03;5.73;;;;;;;12.57;62.25;95039.75;5129376;28;20208;-49
2023/01/06 00:30:05;;;;;;;7.47;6.13;;;;;;;12.47;62.28;95027.75;5129744;28;20228;-46
2023/01/06 00:32:32;;;;;;;7.27;5.63;;;;;;;12.59;62.29;95050.66;5129427;28;20189;-47
2023/01/06 00:35:00;;;;;;;10.87;5.80;;;;;;;12.59;62.23;95048.91;5129712;28;20229;-44
2023/01/06 00:37:27;;;;;;;6.93;5.77;;;;;;;12.59;62.28;95051.47;5129035;28;20238;-44
2023/01/06 00:39:53;;;;;;;6.93;5.53;;;;;;;12.55;62.41;95037.31;5123403;28;20420;-44
2023/01/06 00:42:21;;;;;;;10.67;6.10;;;;;;;12.58;62.16;95034.47;5129558;28;20249;-43
2023/01/06 00:44:48;;;;;;;7.93;5.47;;;;;;;12.56;62.35;95033.78;5130047;28;20207;-45
2023/01/06 00:47:15;;;;;;;8.07;5.90;;;;;;;12.59;62.37;95048.91;5129540;28;20187;-45
2023/01/06 00:49:41;;;;;;;9.57;5.80;;;;;;;12.59;62.25;95054.03;5129028;28;20184;-45
2023/01/06 00:52:10;;;;;;;10.23;5.87;;;;;;;12.57;62.23;95050.81;5129203;28;20188;-45
2023/01/06 00:54:37;;;;;;;7.63;5.90;;;;;;;12.59;62.38;95055.78;5129423;28;20196;-47
2023/01/06 00:57:06;;;;;;;6.20;5.03;;;;;;;12.65;62.28;95052.66;5129505;28;20608;-48
2023/01/06 00:59:34;;;;;;;8.53;6.23;;;;;;;12.66;62.40;95056.84;5132528;27;20184;-48
2023/01/06 01:02:01;;;;;;;7.20;5.47;;;;;;;12.67;62.49;95061.03;5127290;27;20553;-48
2023/01/06 01:04:28;;;;;;;7.17;5.33;;;;;;;12.68;62.54;95054.94;5112514;28;20188;-45
2023/01/06 01:06:55;;;;;;;7.37;4.70;;;;;;;12.69;62.50;95054.78;5112901;28;20537;-44
2023/01/06 01:09:25;;;;;;;7.53;5.40;;;;;;;12.71;62.48;95050.34;5112614;27;20242;-48
2023/01/06 01:12:10;;;;;;;5.37;4.87;;;;;;;12.69;62.50;95041.97;5133381;27;20180;-45
2023/01/06 01:14:40;;;;;;;5.37;4.83;;;;;;;12.73;62.62;95045.06;5133128;27;20180;-49
2023/01/06 01:17:07;;;;;;;12.10;5.80;;;;;;;12.73;62.43;95039.94;5132924;27;20196;-46
2023/01/06 01:19:35;;;;;;;6.47;5.50;;;;;;;12.74;62.69;95044.13;5133178;27;20188;-54
2023/01/06 01:22:01;;;;;;;9.27;5.90;;;;;;;12.75;62.68;95040.59;5132674;27;20245;-49
2023/01/06 01:24:30;;;;;;;5.60;4.90;;;;;;;12.74;62.62;95041.56;5132304;27;20249;-45
2023/01/06 01:26:57;;;;;;;7.53;5.00;;;;;;;12.72;62.60;95038.31;5132788;27;20274;-46
2023/01/06 01:29:24;;;;;;;7.27;4.50;;;;;;;12.76;62.70;95045.59;5132626;27;20668;-46
2023/01/06 01:31:51;;;;;;;5.40;4.60;;;;;;;12.31;62.71;94983.97;5132096;27;20184;-45
2023/01/06 01:34:18;;;;;;;16.50;5.33;;;;;;;12.76;62.69;95048.16;5132697;27;20249;-44
2023/01/06 01:36:47;;;;;;;8.13;4.53;;;;;;;12.76;62.68;95048.16;5132681;27;20181;-46
2023/01/06 01:39:16;;;;;;;5.77;5.17;;;;;;;12.72;62.72;95041.69;5132244;27;20221;-47
2023/01/06 01:41:44;;;;;;;9.07;5.10;;;;;;;12.77;62.67;95031.78;5132111;27;20632;-46
2023/01/06 01:44:49;;;;;;;7.73;4.70;;;;;;;12.79;62.76;95031.69;5132212;27;20672;-43
2023/01/06 01:47:18;;;;;;;7.80;4.93;;;;;;;12.78;62.58;95012.91;5132629;27;20613;-45
2023/01/06 01:49:49;;;;;;;5.50;4.60;;;;;;;12.78;62.75;94994.13;5132195;27;20195;-45
2023/01/06 01:52:17;;;;;;;6.47;4.93;;;;;;;12.79;62.58;94995.75;5132864;27;20184;-47
2023/01/06 01:54:45;;;;;;;5.90;5.17;;;;;;;12.79;62.64;94996.53;5132317;27;20196;-45
2023/01/06 01:57:19;;;;;;;5.80;4.43;;;;;;;12.79;62.89;94993.97;5132668;27;20208;-46
2023/01/06 01:59:46;;;;;;;3.93;3.30;;;;;;;12.81;62.62;94996.41;5132477;27;20744;-45
2023/01/06 02:02:15;;;;;;;5.73;4.60;;;;;;;12.81;62.98;94996.41;5133549;27;20188;-49
2023/01/06 02:04:46;;;;;;;4.60;4.13;;;;;;;12.73;62.74;94984.28;5132522;27;20202;-44
2023/01/06 02:07:13;;;;;;;5.07;4.57;;;;;;;12.82;62.77;95005.69;5132520;27;20288;-47
2023/01/06 02:09:46;;;;;;;6.20;4.60;;;;;;;12.82;62.62;95005.69;5131165;27;20193;-47
2023/01/06 02:12:15;;;;;;;6.90;4.17;;;;;;;12.77;62.77;95013.03;5131517;27;20196;-45
2023/01/06 02:14:42;;;;;;;4.40;4.00;;;;;;;12.79;62.65;95024.78;5131615;27;20221;-47
2023/01/06 02:17:30;;;;;;;6.50;4.03;;;;;;;12.83;62.84;95033.00;5131846;27;20219;-48
2023/01/06 02:20:26;;;;;;;5.07;4.00;;;;;;;12.51;62.69;95000.84;5131451;27;20575;-44
2023/01/06 02:23:25;;;;;;;4.00;3.57;;;;;;;12.85;62.85;95053.38;5130803;27;20184;-45
2023/01/06 02:26:27;;;;;;;4.20;3.80;;;;;;;12.85;62.73;95061.88;5131472;27;20184;-46
2023/01/06 02:29:39;;;;;;;4.97;3.80;;;;;;;12.85;62.67;95063.66;5110936;28;20189;-51
2023/01/06 02:32:17;;;;;;;4.03;3.67;;;;;;;12.85;62.58;95061.09;5120103;27;20267;-45
2023/01/06 02:35:06;;;;;;;3.67;3.33;;;;;;;12.85;62.51;95064.47;5130742;27;20240;-47
2023/01/06 02:37:44;;;;;;;6.20;4.07;;;;;;;12.85;62.66;95061.09;5131604;27;20340;-45
2023/01/06 02:40:21;;;;;;;3.93;3.50;;;;;;;12.77;62.58;95049.75;5131426;27;20660;-45
2023/01/06 02:42:59;;;;;;;3.50;3.20;;;;;;;12.84;62.44;95052.59;5130553;27;20241;-45
2023/01/06 02:45:35;;;;;;;4.67;4.07;;;;;;;12.83;62.69;95052.75;5131259;27;20245;-47
2023/01/06 02:48:12;;;;;;;4.37;3.97;;;;;;;12.80;62.67;95041.78;5131420;27;20192;-49
2023/01/06 02:50:43;;;;;;;5.30;3.67;;;;;;;12.80;62.49;95053.81;5130931;27;20195;-46
2023/01/06 02:53:17;;;;;;;4.13;3.60;;;;;;;12.79;62.77;95050.44;5130849;27;20184;-45
2023/01/06 02:55:46;;;;;;;3.60;3.27;;;;;;;12.63;62.79;95024.56;5131233;27;20640;-44
2023/01/06 02:58:24;;;;;;;3.50;3.20;;;;;;;12.71;62.48;95036.72;5131045;27;20216;-47
2023/01/06 03:00:58;;;;;;;4.30;3.47;;;;;;;12.73;62.80;95034.78;5131117;27;20196;-46
2023/01/06 03:03:30;;;;;;;4.10;3.70;;;;;;;12.78;62.74;95041.13;5130836;27;20180;-57
2023/01/06 03:06:02;;;;;;;4.83;3.63;;;;;;;12.78;62.65;95035.19;5130548;27;20237;-46
2023/01/06 03:08:31;;;;;;;4.20;3.40;;;;;;;12.77;62.70;95026.66;5130798;27;20184;-48
2023/01/06 03:11:00;;;;;;;3.40;2.97;;;;;;;12.77;62.62;95025.88;5131477;27;20196;-49
2023/01/06 03:13:33;;;;;;;4.50;3.60;;;;;;;12.76;62.58;95014.78;5113454;27;20647;-49
2023/01/06 03:16:00;;;;;;;4.67;3.77;;;;;;;12.75;62.76;95022.66;5130940;27;20616;-45
2023/01/06 03:18:28;;;;;;;4.20;3.33;;;;;;;12.74;62.62;95023.59;5130909;27;20224;-48
2023/01/06 03:20:59;;;;;;;3.40;3.10;;;;;;;12.71;62.52;95027.25;5130321;27;20855;-50
2023/01/06 03:23:26;;;;;;;4.50;3.27;;;;;;;12.70;62.68;95035.91;5130528;27;20200;-47
2023/01/06 03:25:53;;;;;;;4.33;3.70;;;;;;;12.66;62.46;95038.91;5130392;27;20250;-49
2023/01/06 03:28:19;;;;;;;4.23;3.63;;;;;;;12.65;62.66;95050.09;5130845;27;20177;-46
2023/01/06 03:30:52;;;;;;;3.50;3.17;;;;;;;12.62;62.65;95058.91;5131540;27;20243;-45
2023/01/06 03:33:25;;;;;;;5.80;3.63;;;;;;;12.59;62.81;95056.59;5132512;27;20720;-46
2023/01/06 03:36:07;;;;;;;3.67;3.23;;;;;;;12.58;62.86;95062.69;5134452;27;20744;-48
2023/01/06 03:38:47;;;;;;;4.70;3.13;;;;;;;12.55;62.77;95037.31;5132279;27;20685;-48
2023/01/06 03:43:10;;;;;;;4.80;3.50;;;;;;;12.51;62.71;95036.78;5130314;27;20712;-45
2023/01/06 03:44:16;;;;;;;4.10;3.20;;;;;;;12.48;62.75;95043.97;5130016;27;20200;-45
2023/01/06 03:46:51;;;;;;;3.47;3.17;;;;;;;12.38;63.01;95023.47;5129941;27;20200;-51
2023/01/06 03:49:21;;;;;;;4.13;3.10;;;;;;;12.38;62.86;95018.31;5129651;27;20179;-45
2023/01/06 03:51:54;;;;;;;3.67;3.30;;;;;;;12.41;62.67;95032.63;5130033;27;20281;-45
2023/01/06 03:54:30;;;;;;;4.50;3.40;;;;;;;12.38;63.00;95032.91;5130065;27;20200;-47
2023/01/06 03:57:04;;;;;;;6.43;3.33;;;;;;;12.35;63.04;95028.06;5130197;27;20678;-46
2023/01/06 03:59:35;;;;;;;3.10;2.90;;;;;;;12.12;62.88;94996.81;5129792;27;20219;-46
2023/01/06 04:02:04;;;;;;;3.60;3.30;;;;;;;12.29;63.00;95025.09;5130132;27;20187;-45
2023/01/06 04:04:31;;;;;;;5.70;3.20;;;;;;;12.26;63.03;95033.09;5129532;28;20219;-48
2023/01/06 04:06:59;;;;;;;4.60;2.90;;;;;;;12.23;62.88;95042.81;5129965;28;20201;-51
2023/01/06 04:09:26;;;;;;;4.07;3.40;;;;;;;12.15;62.88;95032.44;5129956;28;20204;-45
2023/01/06 04:14:51;;;;;;;3.50;3.20;;;;;;;12.18;63.04;95061.19;5046317;28;20198;-48
2023/01/06 04:17:18;;;;;;;3.30;3.00;;;;;;;12.15;62.93;95070.91;5046367;28;20198;-54
2023/01/06 04:19:44;;;;;;;3.93;3.63;;;;;;;12.15;62.89;95087.09;5027200;28;20227;-50
2023/01/06 04:22:13;;;;;;;3.30;3.00;;;;;;;12.14;63.19;95082.13;5026428;28;20738;-48
2023/01/06 04:24:39;;;;;;;4.93;3.20;;;;;;;12.13;63.00;95077.91;5026841;28;20231;-47
2023/01/06 04:27:06;;;;;;;5.13;3.27;;;;;;;12.10;63.04;95091.81;5027172;28;20737;-51
2023/01/06 04:29:33;;;;;;;6.33;3.20;;;;;;;12.10;63.13;95088.47;5027041;28;20203;-51
2023/01/06 04:32:00;;;;;;;3.50;3.07;;;;;;;12.08;63.05;95085.22;5026425;28;20295;-50
2023/01/06 04:34:26;;;;;;;6.23;3.33;;;;;;;12.07;63.19;95096.41;5029408;28;20195;-45
2023/01/06 04:36:53;;;;;;;6.53;3.33;;;;;;;12.05;63.08;95088.88;5029957;28;20192;-45
2023/01/06 04:39:21;;;;;;;3.07;2.77;;;;;;;12.03;63.27;95093.31;5030132;28;20329;-46
2023/01/06 04:41:48;;;;;;;3.10;2.80;;;;;;;12.00;63.25;95086.72;5029995;28;20184;-46
2023/01/06 04:44:15;;;;;;;3.03;2.73;;;;;;;12.02;63.11;95076.31;5030605;28;20191;-45
2023/01/06 04:46:42;;;;;;;4.10;3.20;;;;;;;12.00;63.07;95093.56;5102093;28;20185;-45
2023/01/06 04:49:09;;;;;;;3.40;3.10;;;;;;;11.99;63.06;95092.78;5131229;27;20580;-47
2023/01/06 04:51:35;;;;;;;3.50;3.20;;;;;;;11.98;62.87;95090.34;5136876;27;20268;-48
2023/01/06 04:54:02;;;;;;;3.77;3.33;;;;;;;11.96;63.21;95095.63;5134640;27;20176;-48
2023/01/06 04:56:30;;;;;;;3.20;2.90;;;;;;;11.88;63.15;95112.63;5133765;27;20199;-51
2023/01/06 04:58:58;;;;;;;3.63;3.30;;;;;;;11.94;63.03;95130.00;5134016;27;20209;-47
2023/01/06 05:01:26;;;;;;;3.63;3.10;;;;;;;11.93;63.32;95124.09;5133340;27;20184;-45
2023/01/06 05:03:53;;;;;;;3.50;3.20;;;;;;;11.91;63.09;95114.91;5133065;27;20180;-47
2023/01/06 05:06:20;;;;;;;5.77;2.93;;;;;;;11.86;63.26;95119.63;5133515;27;20200;-50
2023/01/06 05:08:48;;;;;;;3.23;2.93;;;;;;;11.92;63.19;95122.47;5133188;27;20214;-47
2023/01/06 05:11:18;;;;;;;4.90;3.13;;;;;;;11.93;63.23;95125.84;5133047;27;20184;-49
2023/01/06 05:13:46;;;;;;;4.70;3.00;;;;;;;11.92;63.09;95127.59;5133538;27;20176;-46
2023/01/06 05:16:17;;;;;;;3.17;2.80;;;;;;;11.92;62.95;95130.16;5133314;27;20203;-49
2023/01/06 05:18:44;;;;;;;5.20;3.30;;;;;;;11.89;63.02;95125.28;5132423;27;20318;-52
2023/01/06 05:21:11;;;;;;;4.13;3.10;;;;;;;11.90;63.01;95124.34;5132532;27;20652;-53
2023/01/06 05:23:39;;;;;;;3.13;2.83;;;;;;;11.90;63.19;95131.22;5132952;27;20648;-45
2023/01/06 05:26:07;;;;;;;3.30;3.00;;;;;;;11.88;63.32;95128.00;5133375;27;20620;-54
2023/01/06 05:28:34;;;;;;;3.03;2.73;;;;;;;11.85;63.07;95141.88;5132922;27;20184;-55
2023/01/06 05:31:03;;;;;;;2.87;2.63;;;;;;;11.87;63.06;95146.88;5132078;27;20181;-54
2023/01/06 05:33:31;;;;;;;3.00;2.70;;;;;;;11.77;63.01;95141.72;5133020;27;20181;-45
2023/01/06 05:35:58;;;;;;;2.90;2.60;;;;;;;11.84;63.27;95160.78;5132293;27;20672;-45
2023/01/06 05:38:25;;;;;;;3.73;3.07;;;;;;;11.76;63.04;95150.34;5132528;27;20580;-49
2023/01/06 05:40:53;;;;;;;3.13;2.73;;;;;;;11.82;63.10;95167.72;5132615;27;20227;-53
2023/01/06 05:43:19;;;;;;;13.97;3.10;;;;;;;12.28;98.80;95161.97;5132708;27;20666;-47
2023/01/06 05:45:47;;;;;;;8.47;4.47;;;;;;;13.13;100.00;95162.84;5131551;27;20177;-52
2023/01/06 05:48:16;;;;;;;3.47;2.60;;;;;;;13.49;95.64;95168.13;5131979;27;20196;-50
2023/01/06 05:50:42;;;;;;;7.47;3.20;;;;;;;13.55;91.14;95154.69;5132084;27;20188;-45
2023/01/06 05:53:09;;;;;;;5.63;3.10;;;;;;;13.50;85.50;95142.25;5131983;27;20188;-51
2023/01/06 05:55:36;;;;;;;3.10;2.80;;;;;;;13.39;82.39;95150.19;5132258;27;20204;-49
2023/01/06 05:58:03;;;;;;;12.77;2.90;;;;;;;13.33;80.82;95144.81;5131705;27;20196;-54
2023/01/06 06:00:29;;;;;;;5.00;2.50;;;;;;;13.21;80.09;95141.56;5132325;27;20185;-53
2023/01/06 06:02:56;;;;;;;4.67;2.93;;;;;;;13.17;79.40;95153.09;5131968;27;20199;-53
2023/01/06 06:05:24;;;;;;;6.20;2.80;;;;;;;13.09;78.75;95140.16;5131646;27;20268;-50
2023/01/06 06:07:55;;;;;;;6.43;2.87;;;;;;;13.00;78.02;95136.69;5131948;27;20199;-53
2023/01/06 06:10:22;;;;;;;3.17;2.83;;;;;;;12.95;77.40;95136.28;5131985;27;20197;-46
2023/01/06 06:12:50;;;;;;;5.13;2.80;;;;;;;12.77;76.71;95116.50;5133018;27;20189;-49
2023/01/06 06:15:17;;;;;;;8.33;2.90;;;;;;;12.84;76.00;95132.16;5132527;27;20253;-47
2023/01/06 06:17:44;;;;;;;3.83;2.70;;;;;;;12.63;75.09;95109.25;5127416;27;20193;-47
2023/01/06 06:20:11;;;;;;;3.43;2.87;;;;;;;12.75;74.23;95126.09;5124803;27;20234;-47
2023/01/06 06:22:39;;;;;;;4.00;2.63;;;;;;;12.75;73.60;95143.25;5131433;27;20303;-44
2023/01/06 06:25:07;;;;;;;4.00;2.70;;;;;;;12.74;73.01;95144.22;5130434;27;20189;-46
2023/01/06 06:27:33;;;;;;;2.83;2.60;;;;;;;12.36;72.51;95083.56;5131440;27;20234;-46
2023/01/06 06:30:00;;;;;;;4.53;3.20;;;;;;;12.95;71.63;95170.50;5130357;27;20206;-54
2023/01/06 06:32:30;;;;;;;2.87;2.63;;;;;;;13.19;70.52;95174.31;5130643;27;20200;-49
2023/01/06 06:34:57;;;;;;;3.70;2.83;;;;;;;13.50;69.87;95180.81;5128430;27;20223;-49
2023/01/06 06:37:24;;;;;;;2.60;2.40;;;;;;;13.89;69.68;95184.91;5130650;27;20188;-45
2023/01/06 06:39:52;;;;;;;5.47;2.70;;;;;;;14.32;69.75;95186.75;5130349;27;20661;-46
2023/01/06 06:42:18;;;;;;;4.43;3.07;;;;;;;14.80;69.51;95190.66;5130300;27;20203;-45
2023/01/06 06:44:45;;;;;;;2.97;2.70;;;;;;;15.31;68.96;95196.75;5130375;27;20196;-45
2023/01/06 06:47:13;;;;;;;2.60;2.40;;;;;;;15.86;68.46;95198.13;5130491;27;20188;-44
2023/01/06 06:49:40;;;;;;;2.97;2.67;;;;;;;16.39;67.66;95183.97;5129109;27;20181;-45
2023/01/06 06:52:06;;;;;;;2.40;2.20;;;;;;;16.95;66.74;95193.50;5129008;27;20640;-44
2023/01/06 06:54:33;;;;;;;3.60;2.47;;;;;;;17.47;65.62;95193.00;5129339;27;20192;-47
2023/01/06 06:57:01;;;;;;;3.60;2.27;;;;;;;17.63;64.41;95147.38;5129874;27;20549;-47
2023/01/06 06:59:28;;;;;;;3.43;2.03;;;;;;;18.56;63.25;95209.38;5129891;27;20291;-46
2023/01/06 07:01:55;;;;;;;3.17;2.40;;;;;;;19.10;62.15;95216.25;5129590;27;20180;-48
2023/01/06 07:04:21;;;;;;;2.20;2.00;;;;;;;19.63;61.24;95211.81;5127803;27;20208;-46
2023/01/06 07:06:48;;;;;;;2.77;2.57;;;;;;;20.14;59.83;95217.00;5129792;27;20188;-49
2023/01/06 07:09:15;;;;;;;3.17;2.17;;;;;;;20.62;58.75;95223.28;5129518;27;20272;-48
2023/01/06 07:11:42;;;;;;;2.20;2.10;;;;;;;21.11;57.48;95216.44;5130226;27;20196;-47
2023/01/06 07:14:13;;;;;;;2.50;2.30;;;;;;;21.57;56.46;95221.16;5129816;27;20196;-49
2023/01/06 07:16:43;;;;;;;2.30;2.10;;;;;;;21.99;55.57;95228.75;5135357;27;20457;-51
2023/01/06 07:19:11;;;;;;;2.75;2.22;;;;;;;22.30;54.68;95222.25;5132633;27;20235;-49
2023/01/06 07:21:38;;;;;;;3.03;2.10;;;;;;;22.66;53.97;95236.75;5129451;27;20192;-51
2023/01/06 07:24:05;;;;;;;2.47;2.25;;;;;;;22.93;53.50;95230.59;5129822;27;20196;-54
2023/01/06 07:26:32;;;;;;;2.15;2.03;;;;;;;23.16;52.72;95234.59;5130168;27;20195;-51
2023/01/06 07:28:59;;;;;;;2.10;2.00;;;;;;;23.41;51.78;95240.78;5129803;27;20189;-51
2023/01/06 07:31:27;;;;;;;3.75;2.38;;;;;;;23.68;51.05;95251.19;5130175;27;20203;-50
2023/01/06 07:33:54;;;;;;;3.53;2.20;;;;;;;23.93;50.56;95252.13;5129271;27;20180;-48
2023/01/06 07:36:20;;;;;;;2.95;2.08;;;;;;;24.16;50.05;95262.06;5129564;27;20192;-45
2023/01/06 07:38:47;;;;;;;2.63;2.42;;;;;;;24.38;49.91;95265.19;5129790;27;20613;-48
2023/01/06 07:41:14;;;;;;;2.50;2.30;;;;;;;24.60;49.15;95260.44;5129600;27;20243;-52
2023/01/06 07:43:41;;;;;;;2.40;1.98;;;;;;;24.77;48.79;95258.91;5130253;27;20245;-45
2023/01/06 07:46:08;;;;;;;2.60;2.00;;;;;;;24.93;48.67;95254.19;5129620;27;20241;-54
2023/01/06 07:48:36;;;;;;;3.58;1.98;;;;;;;25.02;48.39;95258.94;5128620;27;20643;-49
2023/01/06 07:51:03;;;;;;;2.30;2.10;;;;;;;24.99;48.29;95264.59;5131978;27;20196;-48
2023/01/06 07:53:30;;;;;;;4.65;2.25;;;;;;;24.78;48.83;95264.94;5131271;27;20210;-49
2023/01/06 07:55:57;;;;;;;2.22;2.05;;;;;;;24.54;49.12;95266.53;5128647;27;20196;-47
2023/01/06 07:58:24;;;;;;;2.58;2.25;;;;;;;24.15;48.87;95244.78;5126562;27;20191;-47
2023/01/06 08:00:50;;;;;;;2.13;2.00;;;;;;;24.14;48.76;95252.84;5128094;27;20691;-46
2023/01/06 08:03:17;;;;;;;2.35;2.15;;;;;;;23.93;47.93;95265.19;5129641;27;20203;-48
2023/01/06 08:05:46;;;;;;;2.33;2.13;;;;;;;23.58;48.27;95262.03;5129118;28;20672;-48
2023/01/06 08:08:13;;;;;;;2.95;2.20;;;;;;;23.34;48.12;95263.47;5128661;27;20576;-48
2023/01/06 08:10:40;;;;;;;2.20;2.00;;;;;;;23.23;47.46;95261.50;5129396;28;20207;-53
2023/01/06 08:13:07;;;;;;;2.40;2.20;;;;;;;23.08;47.57;95268.72;5126939;28;20199;-56
2023/01/06 08:15:35;;;;;;;2.58;2.20;;;;;;;22.78;47.80;95266.47;5129254;28;20232;-49
2023/01/06 08:18:02;;;;;;;2.25;2.05;;;;;;;22.42;48.80;95248.56;5126122;28;20180;-51
2023/01/06 08:20:29;;;;;;;2.28;2.10;;;;;;;22.04;48.95;95249.00;5129320;28;20208;-49
2023/01/06 08:22:58;;;;;;;2.28;2.08;;;;;;;21.72;49.29;95250.50;5129537;28;20189;-51
2023/01/06 08:25:25;;;;;;;1.92;1.83;;;;;;;21.33;49.83;95235.44;5126786;28;20180;-47
2023/01/06 08:27:52;;;;;;;3.63;2.50;;;;;;;21.14;49.58;95270.69;5127384;28;20196;-46
2023/01/06 08:30:20;;;;;;;2.10;1.90;;;;;;;21.19;49.29;95269.13;5128754;28;20198;-45
2023/01/06 08:32:48;;;;;;;1.90;1.80;;;;;;;20.90;49.26;95269.31;5128666;28;20187;-48
2023/01/06 08:35:14;;;;;;;2.38;2.15;;;;;;;20.51;49.83;95286.16;5128738;28;20188;-48
2023/01/06 08:37:41;;;;;;;2.30;1.98;;;;;;;20.12;50.37;95286.47;5128792;28;20720;-51
2023/01/06 08:40:10;;;;;;;4.18;2.50;;;;;;;19.76;50.77;95284.63;5128658;28;20232;-44
2023/01/06 08:42:37;;;;;;;2.40;2.10;;;;;;;19.47;51.09;95306.16;5128716;28;20200;-48
2023/01/06 08:45:04;;;;;;;2.00;1.90;;;;;;;19.19;51.29;95286.00;5129046;28;20192;-50
2023/01/06 08:47:31;;;;;;;2.63;2.20;;;;;;;18.88;51.73;95275.75;5129023;28;20196;-46
2023/01/06 08:49:58;;;;;;;4.30;2.17;;;;;;;18.72;51.77;95281.03;5128945;28;20196;-45
2023/01/06 08:52:25;;;;;;;2.43;2.17;;;;;;;18.51;51.89;95282.44;5128466;28;20193;-45
2023/01/06 08:54:52;;;;;;;2.30;2.10;;;;;;;18.34;52.04;95264.59;5128467;28;20208;-47
2023/01/06 08:57:20;;;;;;;2.00;1.90;;;;;;;18.26;52.12;95280.97;5128870;28;20308;-45
2023/01/06 08:59:46;;;;;;;2.20;2.00;;;;;;;18.12;52.12;95273.94;5128583;28;20607;-47
2023/01/06 09:02:13;;;;;;;4.20;2.30;;;;;;;17.99;52.23;95272.69;5128706;28;20595;-48
2023/01/06 09:04:40;;;;;;;2.27;2.07;;;;;;;17.24;52.36;95177.44;5128712;28;20738;-46
2023/01/06 09:07:07;;;;;;;2.30;1.87;;;;;;;17.84;52.38;95282.16;5128393;28;20265;-46
2023/01/06 09:09:34;;;;;;;3.43;1.90;;;;;;;17.85;52.28;95282.97;5125733;28;20192;-51
2023/01/06 09:12:01;;;;;;;1.90;1.80;;;;;;;17.83;52.11;95264.19;5126914;28;20207;-47
2023/01/06 09:14:29;;;;;;;2.40;1.93;;;;;;;17.85;52.17;95260.47;5125430;28;20610;-45
2023/01/06 09:16:56;;;;;;;3.27;1.87;;;;;;;17.87;52.02;95260.28;5125711;28;20672;-46
2023/01/06 09:19:23;;;;;;;5.00;2.13;;;;;;;17.86;51.98;95256.91;5125330;27;20215;-46
2023/01/06 09:21:50;;;;;;;2.43;1.80;;;;;;;17.88;51.77;95260.16;5132117;27;20192;-47
2023/01/06 09:24:16;;;;;;;1.97;1.80;;;;;;;17.81;51.73;95256.63;5131906;27;20297;-52
2023/01/06 09:26:43;;;;;;;1.80;1.70;;;;;;;17.74;51.69;95261.63;5131691;27;20207;-50
2023/01/06 09:29:10;;;;;;;1.93;1.80;;;;;;;17.72;51.63;95265.34;5131648;27;20203;-45
2023/01/06 09:31:38;;;;;;;2.10;1.90;;;;;;;17.73;51.52;95265.19;5132475;27;20181;-46
2023/01/06 09:34:05;;;;;;;1.70;1.60;;;;;;;17.73;51.71;95262.59;5129640;27;20180;-45
2023/01/06 09:36:33;;;;;;;3.73;1.80;;;;;;;17.75;51.50;95263.28;5131674;27;20199;-45
2023/01/06 09:39:00;;;;;;;3.53;1.90;;;;;;;17.77;51.43;95260.50;5131674;27;20199;-45
2023/01/06 09:41:42;;;;;;;2.33;1.90;;;;;;;17.80;51.39;95244.66;5131626;27;20272;-47
2023/01/06 09:44:13;;;;;;;1.83;1.50;;;;;;;17.85;51.36;95242.38;5130689;27;20188;-47
2023/01/06 09:46:44;;;;;;;1.90;1.80;;;;;;;17.87;51.14;95234.41;5131562;27;20185;-45
2023/01/06 09:49:20;;;;;;;8.90;1.90;;;;;;;18.06;61.17;95231.44;5130877;27;20204;-49
2023/01/06 09:51:47;;;;;;;2.90;1.80;;;;;;;18.49;66.86;95231.81;5129549;27;20196;-44
2023/01/06 09:54:19;;;;;;;2.07;1.67;;;;;;;18.79;64.28;95235.31;5131823;27;20185;-45
2023/01/06 09:56:53;;;;;;;1.70;1.60;;;;;;;18.94;62.17;95233.56;5130428;27;20191;-49
2023/01/06 09:59:28;;;;;;;1.70;1.60;;;;;;;19.02;60.98;95237.88;5131260;27;20184;-56
2023/01/06 10:01:58;;;;;;;1.73;1.63;;;;;;;19.07;60.05;95238.13;5129793;27;20656;-50
2023/01/06 10:04:27;;;;;;;2.67;1.50;;;;;;;19.14;59.05;95231.28;5130749;27;20206;-48
2023/01/06 10:07:07;;;;;;;2.50;1.60;;;;;;;19.18;58.60;95223.94;5130714;27;20660;-48
2023/01/06 10:09:40;;;;;;;1.80;1.70;;;;;;;19.23;57.81;95226.81;5128307;27;20627;-46
2023/01/06 10:12:21;;;;;;;2.87;1.80;;;;;;;19.11;56.74;95190.13;5129747;27;20596;-48
2023/01/06 10:14:55;;;;;;;2.13;1.60;;;;;;;19.36;56.01;95203.66;5129782;27;20203;-47
2023/01/06 10:17:37;;;;;;;1.73;1.63;;;;;;;19.40;55.47;95196.31;5130739;27;20646;-45
2023/01/06 10:20:19;;;;;;;3.63;1.57;;;;;;;19.45;55.17;95207.75;5127022;27;20266;-46
2023/01/06 10:22:55;;;;;;;2.17;1.97;;;;;;;19.43;55.08;95208.91;5128149;27;20192;-46
2023/01/06 10:25:27;;;;;;;2.20;1.67;;;;;;;19.38;54.28;95201.66;5128710;27;20206;-46
2023/01/06 10:28:01;;;;;;;1.67;1.57;;;;;;;19.31;54.01;95200.78;5128592;27;20640;-45
2023/01/06 10:30:34;;;;;;;1.60;1.50;;;;;;;19.21;53.79;95195.06;5127577;27;20176;-46
2023/01/06 10:33:02;;;;;;;1.80;1.70;;;;;;;19.09;54.02;95207.66;5127929;27;20252;-47
2023/01/06 10:35:29;;;;;;;3.40;1.70;;;;;;;18.96;53.30;95213.47;5128050;27;20187;-45
2023/01/06 10:38:02;;;;;;;3.07;1.47;;;;;;;18.69;53.40;95201.03;5127420;27;20260;-46
2023/01/06 10:40:31;;;;;;;1.97;1.80;;;;;;;18.53;53.33;95217.53;5125503;27;20765;-47
2023/01/06 10:43:02;;;;;;;1.77;1.67;;;;;;;18.29;53.31;95215.91;5127312;27;20189;-47
2023/01/06 10:45:33;;;;;;;1.60;1.50;;;;;;;18.16;53.47;95205.31;5128576;27;20184;-44
2023/01/06 10:48:06;;;;;;;1.90;1.50;;;;;;;18.01;53.34;95197.50;5128680;27;20195;-52
2023/01/06 10:50:34;;;;;;;1.83;1.67;;;;;;;17.65;53.28;95146.22;5128716;27;20199;-44
2023/01/06 10:53:01;;;;;;;2.77;1.53;;;;;;;17.78;53.49;95174.16;5126757;27;20185;-45
2023/01/06 10:55:42;;;;;;;1.63;1.53;;;;;;;17.65;53.59;95171.28;5126858;27;20196;-45
2023/01/06 10:58:31;;;;;;;1.63;1.53;;;;;;;17.51;53.52;95165.03;5129342;27;20192;-44
2023/01/06 11:01:00;;;;;;;1.70;1.60;;;;;;;17.36;53.50;95154.63;5128363;27;20339;-46
2023/01/06 11:03:29;;;;;;;2.47;1.77;;;;;;;17.24;53.52;95153.38;5129632;27;20271;-47
2023/01/06 11:06:10;;;;;;;1.87;1.77;;;;;;;17.03;53.55;95148.75;5130856;27;20188;-46
2023/01/06 11:08:38;;;;;;;1.60;1.50;;;;;;;17.07;53.57;95160.34;5130204;27;20217;-45
2023/01/06 11:11:11;;;;;;;1.70;1.60;;;;;;;17.08;53.42;95174.09;5129950;27;20288;-46
2023/01/06 11:13:40;;;;;;;1.70;1.60;;;;;;;17.13;53.16;95175.19;5129397;27;20184;-44
2023/01/06 11:16:18;;;;;;;1.90;1.60;;;;;;;17.21;52.94;95161.44;5129320;27;20645;-44
2023/01/06 11:18:51;;;;;;;4.73;1.73;;;;;;;17.34;52.54;95161.72;5129878;27;20180;-45
2023/01/06 11:21:18;;;;;;;1.87;1.60;;;;;;;17.45;52.41;95168.31;5129047;27;20287;-44
2023/01/06 11:23:46;;;;;;;2.53;1.70;;;;;;;17.62;51.93;95172.44;5129590;27;20188;-47
2023/01/06 11:26:16;;;;;;;3.30;1.80;;;;;;;17.67;51.59;95148.66;5129619;27;20275;-44
2023/01/06 11:28:45;;;;;;;1.73;1.60;;;;;;;17.92;51.37;95172.59;5129612;27;20188;-45
2023/01/06 11:31:19;;;;;;;1.77;1.67;;;;;;;18.02;51.23;95171.44;5129045;27;20621;-45
2023/01/06 11:33:53;;;;;;;1.97;1.60;;;;;;;18.06;50.89;95153.78;5127187;27;20285;-44
2023/01/06 11:36:22;;;;;;;1.60;1.50;;;;;;;17.94;50.94;95145.59;5129180;27;20241;-45
2023/01/06 11:38:52;;;;;;;1.70;1.60;;;;;;;17.98;50.80;95161.59;5128457;27;20192;-49
2023/01/06 11:41:30;;;;;;;2.90;1.80;;;;;;;17.93;50.95;95156.94;5128782;27;20223;-45
2023/01/06 11:44:09;;;;;;;1.90;1.70;;;;;;;17.88;50.86;95148.88;5127415;27;20195;-46
2023/01/06 11:46:37;;;;;;;1.70;1.60;;;;;;;17.90;50.73;95165.03;5129108;27;20241;-47
2023/01/06 11:49:12;;;;;;;1.70;1.60;;;;;;;17.83;51.00;95165.88;5129267;27;20192;-45